createdAt,value
2022-12-17T00:00:38.139Z,0
2022-12-17T00:01:37.872Z,0
2022-12-17T00:02:38.487Z,0
2022-12-17T00:03:39.651Z,0
2022-12-17T00:04:38.062Z,0
2022-12-17T00:05:37.380Z,0
2022-12-17T00:06:37.394Z,0
2022-12-17T00:07:37.701Z,0
2022-12-17T00:08:37.948Z,0
2022-12-17T00:09:37.692Z,0
2022-12-17T00:10:37.695Z,0
2022-12-17T00:11:37.724Z,0
2022-12-17T00:12:37.470Z,0
2022-12-17T00:13:39.045Z,0
2022-12-17T00:14:37.763Z,0
2022-12-17T00:15:38.026Z,0
2022-12-17T00:16:38.184Z,0
2022-12-17T00:17:37.805Z,0
2022-12-17T00:18:37.536Z,0
2022-12-17T00:19:37.812Z,0
2022-12-17T00:20:38.232Z,0
2022-12-17T00:21:37.853Z,0
2022-12-17T00:22:38.114Z,0
2022-12-17T00:23:39.334Z,0
2022-12-17T00:24:37.892Z,0
2022-12-17T00:25:37.955Z,0
2022-12-17T00:26:39.129Z,0
2022-12-17T00:27:37.938Z,0
2022-12-17T00:28:38.007Z,0
2022-12-17T00:29:37.701Z,0
2022-12-17T00:30:38.231Z,0
2022-12-17T00:31:38.558Z,0
2022-12-17T00:32:38.263Z,0
2022-12-17T00:33:39.372Z,0
2022-12-17T00:34:37.760Z,0
2022-12-17T00:35:38.302Z,0
2022-12-17T00:36:38.397Z,0
2022-12-17T00:37:38.329Z,0
2022-12-17T00:38:38.325Z,0
2022-12-17T00:39:38.340Z,0
2022-12-17T00:40:37.846Z,0
2022-12-17T00:41:38.120Z,0
2022-12-17T00:42:38.391Z,0
2022-12-17T00:43:39.677Z,0
2022-12-17T00:44:37.888Z,0
2022-12-17T00:45:38.428Z,0
2022-12-17T00:46:38.252Z,0
2022-12-17T00:47:37.952Z,0
2022-12-17T00:48:39.438Z,0
2022-12-17T00:49:37.959Z,0
2022-12-17T00:50:38.492Z,0
2022-12-17T00:51:38.301Z,0
2022-12-17T00:52:38.627Z,0
2022-12-17T00:53:39.127Z,0
2022-12-17T00:54:38.327Z,0
2022-12-17T00:55:38.598Z,0
2022-12-17T00:56:38.568Z,0
2022-12-17T00:57:38.587Z,0
2022-12-17T00:58:38.600Z,0
2022-12-17T00:59:38.609Z,0
2022-12-17T01:00:38.998Z,0
2022-12-17T01:01:39.562Z,0
2022-12-17T01:02:39.286Z,0
2022-12-17T01:03:39.836Z,0
2022-12-17T01:04:38.416Z,0
2022-12-17T01:05:38.166Z,0
2022-12-17T01:06:38.701Z,0
2022-12-17T01:07:38.454Z,0
2022-12-17T01:08:38.819Z,0
2022-12-17T01:09:38.230Z,0
2022-12-17T01:10:38.755Z,0
2022-12-17T01:11:38.505Z,0
2022-12-17T01:12:38.537Z,0
2022-12-17T01:13:39.983Z,0
2022-12-17T01:14:38.835Z,0
2022-12-17T01:15:38.569Z,0
2022-12-17T01:16:38.919Z,0
2022-12-17T01:17:38.593Z,0
2022-12-17T01:18:38.860Z,0
2022-12-17T01:19:38.837Z,0
2022-12-17T01:20:38.642Z,0
2022-12-17T01:21:38.662Z,0
2022-12-17T01:22:38.911Z,0
2022-12-17T01:23:39.970Z,0
2022-12-17T01:24:39.043Z,0
2022-12-17T01:25:38.705Z,0
2022-12-17T01:26:38.973Z,0
2022-12-17T01:27:38.981Z,0
2022-12-17T01:28:38.984Z,0
2022-12-17T01:29:38.758Z,0
2022-12-17T01:30:38.753Z,0
2022-12-17T01:31:42.340Z,0
2022-12-17T01:32:38.778Z,0
2022-12-17T01:33:40.046Z,0
2022-12-17T01:34:39.091Z,0
2022-12-17T01:35:38.820Z,0
2022-12-17T01:36:39.090Z,0
2022-12-17T01:37:38.577Z,0
2022-12-17T01:38:39.123Z,0
2022-12-17T01:39:39.145Z,0
2022-12-17T01:40:39.270Z,0
2022-12-17T01:41:39.156Z,0
2022-12-17T01:42:39.181Z,0
2022-12-17T01:43:40.352Z,0
2022-12-17T01:44:39.202Z,0
2022-12-17T01:45:38.906Z,0
2022-12-17T01:46:38.963Z,0
2022-12-17T01:47:38.708Z,0
2022-12-17T01:48:38.977Z,0
2022-12-17T01:49:39.250Z,0
2022-12-17T01:50:39.273Z,0
2022-12-17T01:51:38.788Z,0
2022-12-17T01:52:39.040Z,0
2022-12-17T01:53:40.801Z,0
2022-12-17T01:54:39.327Z,0
2022-12-17T01:55:38.550Z,0
2022-12-17T01:56:39.430Z,0
2022-12-17T01:57:39.352Z,0
2022-12-17T01:58:39.380Z,0
2022-12-17T01:59:38.610Z,0
2022-12-17T02:00:39.605Z,0
2022-12-17T02:01:40.034Z,0
2022-12-17T02:02:39.816Z,0
2022-12-17T02:03:40.958Z,0
2022-12-17T02:04:39.443Z,0
2022-12-17T02:05:39.208Z,0
2022-12-17T02:06:39.466Z,0
2022-12-17T02:07:39.840Z,0
2022-12-17T02:08:39.507Z,0
2022-12-17T02:09:39.254Z,0
2022-12-17T02:10:38.999Z,0
2022-12-17T02:11:39.536Z,0
2022-12-17T02:12:40.010Z,0
2022-12-17T02:13:40.369Z,0
2022-12-17T02:14:39.573Z,0
2022-12-17T02:15:39.578Z,0
2022-12-17T02:16:39.792Z,0
2022-12-17T02:17:39.627Z,0
2022-12-17T02:18:39.354Z,0
2022-12-17T02:19:39.120Z,0
2022-12-17T02:20:39.652Z,0
2022-12-17T02:21:39.675Z,0
2022-12-17T02:22:39.682Z,0
2022-12-17T02:23:40.860Z,0
2022-12-17T02:24:38.928Z,0
2022-12-17T02:25:39.207Z,0
2022-12-17T02:26:39.474Z,0
2022-12-17T02:27:39.500Z,0
2022-12-17T02:28:39.913Z,0
2022-12-17T02:29:39.768Z,0
2022-12-17T02:30:39.264Z,0
2022-12-17T02:31:40.044Z,0
2022-12-17T02:32:39.277Z,0
2022-12-17T02:33:40.909Z,0
2022-12-17T02:34:39.586Z,0
2022-12-17T02:35:39.582Z,0
2022-12-17T02:36:39.853Z,0
2022-12-17T02:37:39.618Z,0
2022-12-17T02:38:39.610Z,0
2022-12-17T02:39:39.895Z,0
2022-12-17T02:40:39.377Z,0
2022-12-17T02:41:39.913Z,0
2022-12-17T02:42:39.673Z,0
2022-12-17T02:43:40.650Z,0
2022-12-17T02:44:40.121Z,0
2022-12-17T02:45:39.905Z,0
2022-12-17T02:46:39.734Z,0
2022-12-17T02:47:39.481Z,0
2022-12-17T02:48:39.746Z,0
2022-12-17T02:49:39.756Z,0
2022-12-17T02:50:40.043Z,0
2022-12-17T02:51:39.775Z,0
2022-12-17T02:52:42.110Z,0
2022-12-17T02:53:41.068Z,0
2022-12-17T02:54:40.078Z,0
2022-12-17T02:55:39.828Z,0
2022-12-17T02:56:39.848Z,0
2022-12-17T02:57:49.561Z,0
2022-12-17T02:58:39.871Z,0
2022-12-17T02:59:40.136Z,0
2022-12-17T03:00:40.252Z,0
2022-12-17T03:01:40.854Z,0
2022-12-17T03:02:40.587Z,0
2022-12-17T03:03:43.862Z,0
2022-12-17T03:04:40.206Z,0
2022-12-17T03:05:52.010Z,0
2022-12-17T03:06:39.972Z,0
2022-12-17T03:07:39.993Z,0
2022-12-17T03:08:40.293Z,0
2022-12-17T03:09:40.362Z,0
2022-12-17T03:10:40.291Z,0
2022-12-17T03:11:40.301Z,0
2022-12-17T03:12:40.651Z,0
2022-12-17T03:13:41.682Z,0
2022-12-17T03:14:40.060Z,0
2022-12-17T03:15:40.348Z,0
2022-12-17T03:16:45.252Z,0
2022-12-17T03:17:40.102Z,0
2022-12-17T03:18:40.382Z,0
2022-12-17T03:19:40.389Z,0
2022-12-17T03:20:40.047Z,0
2022-12-17T03:21:40.437Z,0
2022-12-17T03:22:40.438Z,0
2022-12-17T03:23:42.010Z,0
2022-12-17T03:24:40.461Z,0
2022-12-17T03:25:40.216Z,0
2022-12-17T03:26:40.482Z,0
2022-12-17T03:27:40.501Z,0
2022-12-17T03:28:40.523Z,0
2022-12-17T03:29:40.516Z,0
2022-12-17T03:30:49.567Z,0
2022-12-17T03:31:40.833Z,0
2022-12-17T03:32:40.682Z,0
2022-12-17T03:33:41.711Z,0
2022-12-17T03:34:40.320Z,0
2022-12-17T03:35:40.344Z,0
2022-12-17T03:36:40.098Z,0
2022-12-17T03:37:40.096Z,0
2022-12-17T03:38:40.377Z,0
2022-12-17T03:39:40.637Z,0
2022-12-17T03:40:40.132Z,0
2022-12-17T03:41:40.138Z,0
2022-12-17T03:42:40.679Z,0
2022-12-17T03:43:41.625Z,0
2022-12-17T03:44:40.712Z,0
2022-12-17T03:45:40.924Z,0
2022-12-17T03:46:40.633Z,0
2022-12-17T03:47:40.741Z,0
2022-12-17T03:48:40.859Z,0
2022-12-17T03:49:40.776Z,0
2022-12-17T03:50:40.259Z,0
2022-12-17T03:51:40.658Z,0
2022-12-17T03:52:40.796Z,0
2022-12-17T03:53:41.744Z,0
2022-12-17T03:54:40.818Z,0
2022-12-17T03:55:40.849Z,0
2022-12-17T03:56:40.845Z,0
2022-12-17T03:57:40.883Z,0
2022-12-17T03:58:40.359Z,0
2022-12-17T03:59:40.642Z,0
2022-12-17T04:00:40.634Z,0
2022-12-17T04:01:41.575Z,0
2022-12-17T04:02:41.715Z,0
2022-12-17T04:03:42.628Z,0
2022-12-17T04:04:41.012Z,0
2022-12-17T04:05:40.703Z,0
2022-12-17T04:06:40.466Z,0
2022-12-17T04:07:40.981Z,0
2022-12-17T04:08:40.732Z,0
2022-12-17T04:09:41.182Z,0
2022-12-17T04:10:40.767Z,0
2022-12-17T04:11:40.782Z,0
2022-12-17T04:12:41.438Z,0
2022-12-17T04:13:49.064Z,0
2022-12-17T04:14:40.559Z,0
2022-12-17T04:15:41.151Z,0
2022-12-17T04:16:41.077Z,0
2022-12-17T04:17:40.862Z,0
2022-12-17T04:18:40.862Z,0
2022-12-17T04:19:41.152Z,0
2022-12-17T04:20:41.240Z,0
2022-12-17T04:21:40.882Z,0
2022-12-17T04:22:41.153Z,0
2022-12-17T04:23:42.041Z,0
2022-12-17T04:24:41.199Z,0
2022-12-17T04:25:40.675Z,0
2022-12-17T04:26:40.981Z,0
2022-12-17T04:27:41.222Z,0
2022-12-17T04:28:40.995Z,0
2022-12-17T04:29:40.981Z,0
2022-12-17T04:30:41.369Z,0
2022-12-17T04:31:41.285Z,0
2022-12-17T04:32:42.668Z,0
2022-12-17T04:33:42.191Z,0
2022-12-17T04:34:40.788Z,0
2022-12-17T04:35:41.096Z,0
2022-12-17T04:36:41.551Z,0
2022-12-17T04:37:41.362Z,0
2022-12-17T04:38:41.129Z,0
2022-12-17T04:39:41.370Z,0
2022-12-17T04:40:40.862Z,0
2022-12-17T04:41:41.134Z,0
2022-12-17T04:42:40.630Z,0
2022-12-17T04:43:41.849Z,0
2022-12-17T04:44:41.436Z,0
2022-12-17T04:45:41.440Z,0
2022-12-17T04:46:41.539Z,0
2022-12-17T04:47:40.950Z,0
2022-12-17T04:48:41.221Z,0
2022-12-17T04:49:41.504Z,0
2022-12-17T04:50:40.994Z,0
2022-12-17T04:51:41.538Z,0
2022-12-17T04:52:41.669Z,0
2022-12-17T04:53:42.295Z,0
2022-12-17T04:54:41.278Z,0
2022-12-17T04:55:41.311Z,0
2022-12-17T04:56:41.344Z,0
2022-12-17T04:57:41.596Z,0
2022-12-17T04:58:41.340Z,0
2022-12-17T04:59:41.089Z,0
2022-12-17T05:00:41.106Z,0
2022-12-17T05:01:42.057Z,0
2022-12-17T05:02:48.107Z,0
2022-12-17T05:03:43.721Z,0
2022-12-17T05:04:41.150Z,0
2022-12-17T05:05:41.425Z,0
2022-12-17T05:06:41.693Z,0
2022-12-17T05:07:41.612Z,0
2022-12-17T05:08:47.033Z,0
2022-12-17T05:09:41.208Z,0
2022-12-17T05:10:41.732Z,0
2022-12-17T05:11:41.762Z,0
2022-12-17T05:12:41.194Z,0
2022-12-17T05:13:42.529Z,0
2022-12-17T05:14:41.534Z,0
2022-12-17T05:15:41.790Z,0
2022-12-17T05:16:41.854Z,0
2022-12-17T05:17:41.573Z,0
2022-12-17T05:18:41.845Z,0
2022-12-17T05:19:41.860Z,0
2022-12-17T05:20:41.619Z,0
2022-12-17T05:21:41.892Z,0
2022-12-17T05:22:41.614Z,0
2022-12-17T05:23:42.922Z,0
2022-12-17T05:24:42.016Z,0
2022-12-17T05:25:41.925Z,0
2022-12-17T05:26:41.416Z,0
2022-12-17T05:27:41.951Z,0
2022-12-17T05:28:41.698Z,0
2022-12-17T05:29:41.723Z,0
2022-12-17T05:30:42.015Z,0
2022-12-17T05:31:42.034Z,0
2022-12-17T05:32:41.756Z,0
2022-12-17T05:33:42.915Z,0
2022-12-17T05:34:41.506Z,0
2022-12-17T05:35:42.052Z,0
2022-12-17T05:36:42.047Z,0
2022-12-17T05:37:41.810Z,0
2022-12-17T05:38:42.076Z,0
2022-12-17T05:39:41.847Z,0
2022-12-17T05:40:42.184Z,0
2022-12-17T05:41:41.867Z,0
2022-12-17T05:42:42.132Z,0
2022-12-17T05:43:42.967Z,0
2022-12-17T05:44:41.640Z,0
2022-12-17T05:45:41.914Z,0
2022-12-17T05:46:42.224Z,0
2022-12-17T05:47:41.669Z,0
2022-12-17T05:48:41.940Z,0
2022-12-17T05:49:42.210Z,0
2022-12-17T05:50:41.974Z,0
2022-12-17T05:51:45.796Z,0
2022-12-17T05:52:42.004Z,0
2022-12-17T05:53:43.192Z,0
2022-12-17T05:54:42.005Z,0
2022-12-17T05:55:42.057Z,0
2022-12-17T05:56:42.356Z,0
2022-12-17T05:57:42.309Z,0
2022-12-17T05:58:42.054Z,0
2022-12-17T05:59:41.831Z,0
2022-12-17T06:00:41.827Z,0
2022-12-17T06:01:42.464Z,0
2022-12-17T06:02:42.969Z,0
2022-12-17T06:03:44.633Z,0
2022-12-17T06:04:41.892Z,0
2022-12-17T06:05:42.420Z,0
2022-12-17T06:06:41.901Z,0
2022-12-17T06:07:42.164Z,0
2022-12-17T06:08:42.440Z,0
2022-12-17T06:09:42.464Z,0
2022-12-17T06:10:42.197Z,0
2022-12-17T06:11:42.554Z,0
2022-12-17T06:12:42.803Z,0
2022-12-17T06:13:42.767Z,0
2022-12-17T06:14:42.255Z,0
2022-12-17T06:15:42.280Z,0
2022-12-17T06:16:42.302Z,0
2022-12-17T06:17:42.279Z,0
2022-12-17T06:18:42.294Z,0
2022-12-17T06:19:42.563Z,0
2022-12-17T06:20:42.652Z,0
2022-12-17T06:21:42.319Z,0
2022-12-17T06:22:42.360Z,0
2022-12-17T06:23:43.088Z,0
2022-12-17T06:24:48.888Z,0
2022-12-17T06:25:42.364Z,0
2022-12-17T06:26:42.641Z,0
2022-12-17T06:27:42.415Z,0
2022-12-17T06:28:42.765Z,0
2022-12-17T06:29:42.678Z,0
2022-12-17T06:30:42.453Z,0
2022-12-17T06:31:43.223Z,0
2022-12-17T06:32:42.714Z,0
2022-12-17T06:33:43.518Z,0
2022-12-17T06:34:42.743Z,0
2022-12-17T06:35:42.505Z,0
2022-12-17T06:36:42.491Z,0
2022-12-17T06:37:42.788Z,0
2022-12-17T06:38:42.807Z,0
2022-12-17T06:39:42.264Z,0
2022-12-17T06:40:42.283Z,0
2022-12-17T06:41:42.553Z,0
2022-12-17T06:42:42.825Z,0
2022-12-17T06:43:43.459Z,0
2022-12-17T06:44:43.015Z,0
2022-12-17T06:45:42.603Z,0
2022-12-17T06:46:42.900Z,0
2022-12-17T06:47:42.625Z,0
2022-12-17T06:48:42.641Z,0
2022-12-17T06:49:42.912Z,0
2022-12-17T06:50:42.938Z,0
2022-12-17T06:51:42.401Z,0
2022-12-17T06:52:42.439Z,0
2022-12-17T06:53:43.701Z,0
2022-12-17T06:54:42.973Z,0
2022-12-17T06:55:42.977Z,0
2022-12-17T06:56:42.729Z,0
2022-12-17T06:57:54.602Z,0
2022-12-17T06:58:42.767Z,0
2022-12-17T06:59:43.095Z,0
2022-12-17T07:00:43.422Z,0
2022-12-17T07:01:44.226Z,0
2022-12-17T07:02:43.495Z,0
2022-12-17T07:03:44.032Z,0
2022-12-17T07:04:42.845Z,0
2022-12-17T07:05:42.842Z,0
2022-12-17T07:06:43.116Z,0
2022-12-17T07:07:43.131Z,0
2022-12-17T07:08:42.860Z,0
2022-12-17T07:09:43.147Z,0
2022-12-17T07:10:43.148Z,0
2022-12-17T07:11:43.415Z,0
2022-12-17T07:12:42.995Z,0
2022-12-17T07:13:44.458Z,0
2022-12-17T07:14:42.672Z,0
2022-12-17T07:15:42.978Z,4
2022-12-17T07:16:43.774Z,4
2022-12-17T07:17:42.971Z,4
2022-12-17T07:18:43.040Z,0
2022-12-17T07:19:42.989Z,0
2022-12-17T07:20:43.263Z,0
2022-12-17T07:21:43.296Z,0
2022-12-17T07:22:43.291Z,4
2022-12-17T07:23:44.205Z,4
2022-12-17T07:24:42.801Z,4
2022-12-17T07:25:48.891Z,4
2022-12-17T07:26:43.069Z,4
2022-12-17T07:27:43.095Z,0
2022-12-17T07:28:43.101Z,4
2022-12-17T07:29:42.852Z,4
2022-12-17T07:30:43.123Z,4
2022-12-17T07:31:43.767Z,4
2022-12-17T07:32:43.496Z,4
2022-12-17T07:33:44.161Z,8
2022-12-17T07:34:43.187Z,8
2022-12-17T07:35:43.183Z,4
2022-12-17T07:36:43.184Z,4
2022-12-17T07:37:43.467Z,4
2022-12-17T07:38:43.479Z,8
2022-12-17T07:39:42.968Z,8
2022-12-17T07:40:43.253Z,8
2022-12-17T07:41:43.505Z,8
2022-12-17T07:42:43.257Z,8
2022-12-17T07:43:48.227Z,8
2022-12-17T07:44:43.533Z,8
2022-12-17T07:45:43.802Z,8
2022-12-17T07:46:43.053Z,12
2022-12-17T07:47:43.685Z,12
2022-12-17T07:48:43.729Z,8
2022-12-17T07:49:43.333Z,8
2022-12-17T07:50:43.072Z,12
2022-12-17T07:51:43.621Z,12
2022-12-17T07:52:43.634Z,12
2022-12-17T07:53:44.432Z,12
2022-12-17T07:54:43.640Z,12
2022-12-17T07:55:43.407Z,12
2022-12-17T07:56:43.672Z,12
2022-12-17T07:57:43.688Z,16
2022-12-17T07:58:43.706Z,12
2022-12-17T07:59:43.708Z,16
2022-12-17T08:00:50.111Z,16
2022-12-17T08:01:44.053Z,16
2022-12-17T08:02:44.137Z,16
2022-12-17T08:03:45.213Z,20
2022-12-17T08:04:43.858Z,16
2022-12-17T08:05:43.009Z,16
2022-12-17T08:06:43.539Z,20
2022-12-17T08:07:43.810Z,20
2022-12-17T08:08:43.775Z,20
2022-12-17T08:09:43.865Z,20
2022-12-17T08:10:43.831Z,24
2022-12-17T08:11:43.863Z,24
2022-12-17T08:12:44.056Z,20
2022-12-17T08:13:44.702Z,24
2022-12-17T08:14:43.619Z,24
2022-12-17T08:15:43.394Z,28
2022-12-17T08:16:43.982Z,28
2022-12-17T08:17:44.116Z,24
2022-12-17T08:18:43.407Z,28
2022-12-17T08:19:43.699Z,28
2022-12-17T08:20:44.025Z,32
2022-12-17T08:21:43.707Z,32
2022-12-17T08:22:43.712Z,32
2022-12-17T08:23:44.442Z,32
2022-12-17T08:24:43.729Z,36
2022-12-17T08:25:43.749Z,36
2022-12-17T08:26:50.750Z,36
2022-12-17T08:27:43.786Z,36
2022-12-17T08:28:59.393Z,36
2022-12-17T08:29:44.051Z,36
2022-12-17T08:30:43.884Z,40
2022-12-17T08:31:43.567Z,36
2022-12-17T08:32:43.847Z,36
2022-12-17T08:33:44.561Z,40
2022-12-17T08:34:43.859Z,40
2022-12-17T08:35:43.889Z,44
2022-12-17T08:36:44.194Z,40
2022-12-17T08:37:44.152Z,44
2022-12-17T08:38:43.892Z,44
2022-12-17T08:39:43.651Z,44
2022-12-17T08:40:44.194Z,44
2022-12-17T08:41:43.929Z,48
2022-12-17T08:42:43.688Z,44
2022-12-17T08:43:44.616Z,48
2022-12-17T08:44:44.209Z,48
2022-12-17T08:45:43.985Z,44
2022-12-17T08:46:44.250Z,48
2022-12-17T08:47:44.008Z,48
2022-12-17T08:48:44.268Z,52
2022-12-17T08:49:43.759Z,52
2022-12-17T08:50:44.032Z,52
2022-12-17T08:51:44.331Z,52
2022-12-17T08:52:44.395Z,52
2022-12-17T08:53:45.782Z,48
2022-12-17T08:54:44.126Z,52
2022-12-17T08:55:43.846Z,52
2022-12-17T08:56:43.837Z,56
2022-12-17T08:57:43.861Z,56
2022-12-17T08:58:44.384Z,56
2022-12-17T08:59:44.148Z,56
2022-12-17T09:00:44.410Z,56
2022-12-17T09:01:44.977Z,60
2022-12-17T09:02:45.147Z,56
2022-12-17T09:03:45.977Z,56
2022-12-17T09:04:44.470Z,60
2022-12-17T09:05:44.307Z,60
2022-12-17T09:06:46.200Z,60
2022-12-17T09:07:44.221Z,60
2022-12-17T09:08:44.562Z,60
2022-12-17T09:09:44.248Z,56
2022-12-17T09:10:44.256Z,56
2022-12-17T09:11:44.535Z,60
2022-12-17T09:12:44.630Z,60
2022-12-17T09:13:44.789Z,60
2022-12-17T09:14:44.376Z,60
2022-12-17T09:15:44.582Z,56
2022-12-17T09:16:44.836Z,60
2022-12-17T09:17:44.600Z,60
2022-12-17T09:18:44.343Z,60
2022-12-17T09:19:44.616Z,56
2022-12-17T09:20:44.360Z,60
2022-12-17T09:21:44.124Z,60
2022-12-17T09:22:44.407Z,56
2022-12-17T09:23:45.187Z,56
2022-12-17T09:24:44.823Z,56
2022-12-17T09:25:44.431Z,56
2022-12-17T09:26:44.690Z,60
2022-12-17T09:27:43.945Z,56
2022-12-17T09:28:44.454Z,56
2022-12-17T09:29:44.723Z,56
2022-12-17T09:30:44.696Z,56
2022-12-17T09:31:44.886Z,56
2022-12-17T09:32:44.491Z,56
2022-12-17T09:33:45.252Z,56
2022-12-17T09:34:44.261Z,56
2022-12-17T09:35:44.551Z,56
2022-12-17T09:36:51.351Z,56
2022-12-17T09:37:44.551Z,56
2022-12-17T09:38:44.626Z,56
2022-12-17T09:39:44.839Z,56
2022-12-17T09:40:44.983Z,60
2022-12-17T09:41:44.607Z,56
2022-12-17T09:42:53.487Z,56
2022-12-17T09:43:44.916Z,60
2022-12-17T09:44:44.631Z,56
2022-12-17T09:45:44.692Z,60
2022-12-17T09:46:44.747Z,60
2022-12-17T09:47:44.419Z,60
2022-12-17T09:48:44.941Z,60
2022-12-17T09:49:44.696Z,60
2022-12-17T09:50:44.705Z,56
2022-12-17T09:51:44.462Z,60
2022-12-17T09:52:44.726Z,60
2022-12-17T09:53:45.221Z,60
2022-12-17T09:54:45.039Z,60
2022-12-17T09:55:44.902Z,60
2022-12-17T09:56:45.096Z,60
2022-12-17T09:57:45.052Z,60
2022-12-17T09:58:45.050Z,64
2022-12-17T09:59:45.069Z,64
2022-12-17T10:00:44.587Z,64
2022-12-17T10:01:45.234Z,64
2022-12-17T10:02:46.080Z,64
2022-12-17T10:03:46.650Z,64
2022-12-17T10:04:45.118Z,64
2022-12-17T10:05:44.867Z,64
2022-12-17T10:06:45.144Z,64
2022-12-17T10:07:44.630Z,64
2022-12-17T10:08:44.908Z,64
2022-12-17T10:09:45.008Z,64
2022-12-17T10:10:45.213Z,64
2022-12-17T10:11:44.929Z,64
2022-12-17T10:12:45.488Z,64
2022-12-17T10:13:45.697Z,60
2022-12-17T10:14:44.980Z,64
2022-12-17T10:15:45.275Z,64
2022-12-17T10:16:45.251Z,64
2022-12-17T10:17:45.006Z,64
2022-12-17T10:18:44.749Z,68
2022-12-17T10:19:45.279Z,64
2022-12-17T10:20:44.766Z,68
2022-12-17T10:21:45.310Z,68
2022-12-17T10:22:46.864Z,72
2022-12-17T10:23:45.663Z,72
2022-12-17T10:24:44.824Z,68
2022-12-17T10:25:45.095Z,68
2022-12-17T10:26:45.137Z,68
2022-12-17T10:27:44.857Z,64
2022-12-17T10:28:45.463Z,64
2022-12-17T10:29:53.405Z,64
2022-12-17T10:30:45.407Z,64
2022-12-17T10:31:45.517Z,64
2022-12-17T10:32:45.441Z,60
2022-12-17T10:33:45.809Z,64
2022-12-17T10:34:44.937Z,64
2022-12-17T10:35:45.213Z,64
2022-12-17T10:36:44.966Z,64
2022-12-17T10:37:44.970Z,64
2022-12-17T10:38:44.981Z,60
2022-12-17T10:39:44.996Z,64
2022-12-17T10:40:45.272Z,64
2022-12-17T10:41:45.260Z,64
2022-12-17T10:42:45.554Z,60
2022-12-17T10:43:45.683Z,64
2022-12-17T10:44:45.659Z,64
2022-12-17T10:45:45.605Z,64
2022-12-17T10:46:45.412Z,64
2022-12-17T10:47:45.075Z,68
2022-12-17T10:48:45.347Z,64
2022-12-17T10:49:45.647Z,68
2022-12-17T10:50:45.648Z,64
2022-12-17T10:51:45.660Z,64
2022-12-17T10:52:45.385Z,68
2022-12-17T10:53:46.060Z,68
2022-12-17T10:54:52.507Z,68
2022-12-17T10:55:45.416Z,64
2022-12-17T10:56:45.449Z,68
2022-12-17T10:57:45.191Z,68
2022-12-17T10:58:45.736Z,64
2022-12-17T10:59:44.957Z,64
2022-12-17T11:00:53.980Z,60
2022-12-17T11:01:46.360Z,60
2022-12-17T11:02:46.701Z,60
2022-12-17T11:03:45.849Z,56
2022-12-17T11:04:45.527Z,56
2022-12-17T11:05:45.803Z,56
2022-12-17T11:06:49.788Z,56
2022-12-17T11:07:45.819Z,52
2022-12-17T11:08:45.966Z,52
2022-12-17T11:09:45.589Z,52
2022-12-17T11:10:45.335Z,52
2022-12-17T11:11:45.602Z,56
2022-12-17T11:12:45.909Z,56
2022-12-17T11:13:46.486Z,60
2022-12-17T11:14:45.659Z,64
2022-12-17T11:15:45.636Z,68
2022-12-17T11:16:45.994Z,68
2022-12-17T11:17:45.915Z,72
2022-12-17T11:18:45.672Z,72
2022-12-17T11:19:45.951Z,72
2022-12-17T11:20:45.696Z,72
2022-12-17T11:21:45.975Z,76
2022-12-17T11:22:45.729Z,72
2022-12-17T11:23:46.566Z,72
2022-12-17T11:24:45.742Z,68
2022-12-17T11:25:46.029Z,64
2022-12-17T11:26:45.763Z,60
2022-12-17T11:27:46.045Z,56
2022-12-17T11:28:45.531Z,52
2022-12-17T11:29:45.796Z,52
2022-12-17T11:30:46.296Z,52
2022-12-17T11:31:45.993Z,52
2022-12-17T11:32:46.167Z,52
2022-12-17T11:33:46.263Z,56
2022-12-17T11:34:46.148Z,60
2022-12-17T11:35:45.611Z,60
2022-12-17T11:36:46.387Z,68
2022-12-17T11:37:46.137Z,72
2022-12-17T11:38:46.222Z,72
2022-12-17T11:39:46.176Z,80
2022-12-17T11:40:46.184Z,88
2022-12-17T11:41:45.670Z,92
2022-12-17T11:42:46.337Z,100
2022-12-17T11:43:46.209Z,100
2022-12-17T11:44:45.960Z,108
2022-12-17T11:45:45.978Z,104
2022-12-17T11:46:46.084Z,108
2022-12-17T11:47:45.749Z,112
2022-12-17T11:48:46.969Z,120
2022-12-17T11:49:46.013Z,128
2022-12-17T11:50:45.512Z,136
2022-12-17T11:51:45.787Z,132
2022-12-17T11:52:46.317Z,136
2022-12-17T11:53:45.810Z,128
2022-12-17T11:54:46.090Z,128
2022-12-17T11:55:46.343Z,132
2022-12-17T11:56:46.390Z,128
2022-12-17T11:57:46.129Z,128
2022-12-17T11:58:46.540Z,128
2022-12-17T11:59:56.023Z,128
2022-12-17T12:00:46.450Z,128
2022-12-17T12:01:46.406Z,132
2022-12-17T12:02:46.506Z,132
2022-12-17T12:03:47.057Z,136
2022-12-17T12:04:46.530Z,140
2022-12-17T12:05:46.200Z,144
2022-12-17T12:06:46.220Z,148
2022-12-17T12:07:46.495Z,144
2022-12-17T12:08:46.768Z,136
2022-12-17T12:09:46.503Z,132
2022-12-17T12:10:46.266Z,132
2022-12-17T12:11:46.266Z,128
2022-12-17T12:12:46.750Z,132
2022-12-17T12:13:46.558Z,136
2022-12-17T12:14:46.033Z,136
2022-12-17T12:15:46.702Z,132
2022-12-17T12:16:51.537Z,128
2022-12-17T12:17:46.599Z,128
2022-12-17T12:18:46.674Z,132
2022-12-17T12:19:46.634Z,136
2022-12-17T12:20:46.968Z,128
2022-12-17T12:21:46.119Z,112
2022-12-17T12:22:46.376Z,96
2022-12-17T12:23:46.408Z,88
2022-12-17T12:24:46.399Z,84
2022-12-17T12:25:46.674Z,84
2022-12-17T12:26:46.435Z,80
2022-12-17T12:27:49.470Z,72
2022-12-17T12:28:46.941Z,64
2022-12-17T12:29:46.467Z,64
2022-12-17T12:30:46.480Z,56
2022-12-17T12:31:47.170Z,52
2022-12-17T12:32:46.750Z,56
2022-12-17T12:33:46.423Z,56
2022-12-17T12:34:46.556Z,52
2022-12-17T12:35:46.796Z,48
2022-12-17T12:36:46.947Z,48
2022-12-17T12:37:46.550Z,48
2022-12-17T12:38:53.362Z,52
2022-12-17T12:39:46.828Z,60
2022-12-17T12:40:46.072Z,60
2022-12-17T12:41:46.336Z,68
2022-12-17T12:42:46.945Z,72
2022-12-17T12:43:46.882Z,68
2022-12-17T12:44:52.355Z,64
2022-12-17T12:45:46.677Z,64
2022-12-17T12:46:46.919Z,56
2022-12-17T12:47:46.688Z,56
2022-12-17T12:48:47.331Z,56
2022-12-17T12:49:46.969Z,56
2022-12-17T12:50:46.819Z,56
2022-12-17T12:51:46.980Z,60
2022-12-17T12:52:47.070Z,68
2022-12-17T12:53:46.733Z,80
2022-12-17T12:54:46.744Z,96
2022-12-17T12:55:46.756Z,108
2022-12-17T12:56:46.757Z,124
2022-12-17T12:57:46.778Z,148
2022-12-17T12:58:46.957Z,172
2022-12-17T12:59:46.792Z,192
2022-12-17T13:00:47.071Z,212
2022-12-17T13:01:47.606Z,216
2022-12-17T13:02:47.750Z,212
2022-12-17T13:03:47.736Z,216
2022-12-17T13:04:46.851Z,212
2022-12-17T13:05:47.069Z,216
2022-12-17T13:06:47.176Z,220
2022-12-17T13:07:46.888Z,212
2022-12-17T13:08:47.802Z,208
2022-12-17T13:09:47.172Z,224
2022-12-17T13:10:47.198Z,232
2022-12-17T13:11:46.941Z,228
2022-12-17T13:12:47.167Z,228
2022-12-17T13:13:46.961Z,216
2022-12-17T13:14:46.967Z,196
2022-12-17T13:15:46.703Z,208
2022-12-17T13:16:47.760Z,208
2022-12-17T13:17:46.984Z,204
2022-12-17T13:18:47.542Z,212
2022-12-17T13:19:46.774Z,220
2022-12-17T13:20:47.329Z,228
2022-12-17T13:21:47.310Z,224
2022-12-17T13:22:47.339Z,224
2022-12-17T13:23:47.321Z,204
2022-12-17T13:24:47.410Z,180
2022-12-17T13:25:46.838Z,152
2022-12-17T13:26:47.100Z,124
2022-12-17T13:27:47.108Z,100
2022-12-17T13:28:47.688Z,80
2022-12-17T13:29:47.234Z,60
2022-12-17T13:30:47.401Z,44
2022-12-17T13:31:47.839Z,44
2022-12-17T13:32:47.173Z,40
2022-12-17T13:33:47.458Z,40
2022-12-17T13:34:47.195Z,36
2022-12-17T13:35:47.201Z,32
2022-12-17T13:36:47.216Z,36
2022-12-17T13:37:47.683Z,36
2022-12-17T13:38:48.237Z,36
2022-12-17T13:39:47.508Z,32
2022-12-17T13:40:47.589Z,32
2022-12-17T13:41:47.010Z,32
2022-12-17T13:42:47.279Z,32
2022-12-17T13:43:46.766Z,32
2022-12-17T13:44:47.621Z,32
2022-12-17T13:45:47.304Z,28
2022-12-17T13:46:53.960Z,28
2022-12-17T13:47:47.330Z,32
2022-12-17T13:48:47.941Z,32
2022-12-17T13:50:47.113Z,32
2022-12-17T13:51:47.384Z,28
2022-12-17T13:52:47.654Z,28
2022-12-17T13:53:47.656Z,28
2022-12-17T13:54:47.717Z,28
2022-12-17T13:55:47.160Z,28
2022-12-17T13:56:47.776Z,32
2022-12-17T13:57:47.207Z,28
2022-12-17T13:58:53.064Z,28
2022-12-17T13:59:47.473Z,28
2022-12-17T14:00:47.741Z,28
2022-12-17T14:01:48.414Z,28
2022-12-17T14:02:48.131Z,28
2022-12-17T14:04:13.154Z,24
2022-12-17T14:04:47.779Z,24
2022-12-17T14:05:47.805Z,24
2022-12-17T14:06:47.812Z,24
2022-12-17T14:07:47.560Z,24
2022-12-17T14:08:47.918Z,28
2022-12-17T14:09:47.093Z,24
2022-12-17T14:10:47.596Z,24
2022-12-17T14:11:47.612Z,24
2022-12-17T14:12:47.952Z,24
2022-12-17T14:13:47.615Z,24
2022-12-17T14:14:47.637Z,24
2022-12-17T14:15:47.652Z,20
2022-12-17T14:16:55.930Z,24
2022-12-17T14:17:47.681Z,20
2022-12-17T14:18:47.682Z,20
2022-12-17T14:19:47.440Z,20
2022-12-17T14:20:47.700Z,24
2022-12-17T14:21:47.703Z,20
2022-12-17T14:22:56.035Z,20
2022-12-17T14:23:47.488Z,20
2022-12-17T14:24:47.739Z,20
2022-12-17T14:25:47.763Z,20
2022-12-17T14:26:48.062Z,20
2022-12-17T14:27:48.057Z,20
2022-12-17T14:28:55.119Z,20
2022-12-17T14:29:47.548Z,20
2022-12-17T14:31:32.981Z,16